首页
METAR-TAF:

METAR-TAF

机场 :

都柏林机场

都柏林, 爱尔兰

纬度: 53-26N, 经度: 006-15W, 海拔: 68米

当前天气观测

该预报发布于26分钟前的02:00 UTC
风速5节,风向南转西南,在西转西南之间变化
温度 8°C
湿度 76%
气压 1015 hPa
能见度10公里或以上
1500米以下无云,无积雨云

METAR: EIDW 040200Z 21005KT 170V250 CAVOK 08/04 Q1015 NOSIG

时间: 03:26 (02:26 UTC)

预报

该预报发布于3小时和26分钟前的23:00 UTC
预报有效从04日的 00点(UTC)到 04日的 24点(UTC)
风速5节,风向西转西南
能见度10公里或以上
少量云层高于1800英尺
散云层高于3000英尺
多云层高于5000英尺
成为
从 04日的 00点(UTC)到 04日的 02点(UTC)
风速5节,风向南转西南
成为
从 04日的 05点(UTC)到 04日的 07点(UTC)
风速6节,风向
成为
从 04日的 09点(UTC)到 04日的 11点(UTC)
风速11节,风向
几率 30% :
短暂存在
从 04日的 13点(UTC)到 04日的 16点(UTC)
多云层高于1000英尺
小雨, 毛毛雨
几率 40% :
短暂存在
从 04日的 15点(UTC)到 04日的 18点(UTC)
风速13节,风向,有时为25节阵风
成为
从 04日的 22点(UTC)到 04日的 24点(UTC)
风速15节,风向南转南东,有时为25节阵风

TAF: EIDW 032300Z 0400/0424 24005KT 9999 FEW018 SCT030 BKN050 BECMG 0400/0402 21005KT BECMG 0405/0407 18006KT BECMG 0409/0411 17011KT PROB30 TEMPO 0413/0416 -RADZ BKN010 PROB40 TEMPO 0415/0418 18013G25KT BECMG 0422/0424 16015G25KT

超过4000个机场的气象观测和天气预报(METAR&TAF报告)。

可查询的气象台以黄色和红色小点在地图上表示。

将鼠标移到小点上方,可查看气象台名称。

然后点击查看天气观测和预报。

如需切换地图:点击带黑十字的绿色按钮放大地图;点击带横线的绿色按钮缩小地图;或者点击绿色箭头查看邻近地区的地图。


METAR-TAF: